createdAt,value
2018-12-01T00:02:00.065Z,3.6
2018-12-01T00:04:59.026Z,3.6
2018-12-01T00:07:59.158Z,3.5
2018-12-01T00:10:59.631Z,3.5
2018-12-01T00:13:58.972Z,3.5
2018-12-01T00:16:59.005Z,3.5
2018-12-01T00:19:59.107Z,3.5
2018-12-01T00:22:59.060Z,3.5
2018-12-01T00:25:59.437Z,3.4
2018-12-01T00:28:59.114Z,3.6
2018-12-01T00:31:59.043Z,3.6
2018-12-01T00:34:59.153Z,3.5
2018-12-01T00:37:59.437Z,3.5
2018-12-01T00:40:59.222Z,3.7
2018-12-01T00:43:59.550Z,3.6
2018-12-01T00:46:59.564Z,3.4
2018-12-01T00:49:59.005Z,3.4
2018-12-01T00:52:59.372Z,3.3
2018-12-01T00:55:59.967Z,3.3
2018-12-01T00:58:59.062Z,3.4
2018-12-01T01:01:59.573Z,3.2
2018-12-01T01:04:59.113Z,3.3
2018-12-01T01:07:59.061Z,3.4
2018-12-01T01:10:59.377Z,3.3
2018-12-01T01:13:59.153Z,3.2
2018-12-01T01:16:59.443Z,3.3
2018-12-01T01:19:58.983Z,3.2
2018-12-01T01:22:59.246Z,3.3
2018-12-01T01:25:59.124Z,3.3
2018-12-01T01:28:59.174Z,3.2
2018-12-01T01:31:59.197Z,3.2
2018-12-01T01:34:59.152Z,3.2
2018-12-01T01:38:00.595Z,3.1
2018-12-01T01:40:59.254Z,3.1
2018-12-01T01:43:59.124Z,3.2
2018-12-01T01:46:58.902Z,3.2
2018-12-01T01:49:59.061Z,3.2
2018-12-01T01:52:59.046Z,3.1
2018-12-01T01:55:58.984Z,3.1
2018-12-01T01:58:59.111Z,3.3
2018-12-01T02:01:58.862Z,3.2
2018-12-01T02:04:59.019Z,3.2
2018-12-01T02:07:59.056Z,3
2018-12-01T02:10:58.936Z,3.2
2018-12-01T02:13:59.243Z,3.3
2018-12-01T02:16:59.533Z,3.2
2018-12-01T02:19:59.144Z,3.1
2018-12-01T02:22:59.128Z,3.1
2018-12-01T02:25:59.870Z,3.2
2018-12-01T02:28:59.021Z,3.2
2018-12-01T02:31:59.241Z,3.1
2018-12-01T02:34:59.129Z,3.2
2018-12-01T02:37:59.362Z,3.1
2018-12-01T02:40:59.395Z,3
2018-12-01T02:43:58.945Z,3
2018-12-01T02:46:59.130Z,3.1
2018-12-01T02:49:59.621Z,3.1
2018-12-01T02:52:59.072Z,3.1
2018-12-01T02:55:59.034Z,3.1
2018-12-01T02:58:59.352Z,3.1
2018-12-01T03:01:59.095Z,3.1
2018-12-01T03:04:59.096Z,3.2
2018-12-01T03:07:59.008Z,3.2
2018-12-01T03:10:58.975Z,3.2
2018-12-01T03:13:59.120Z,3
2018-12-01T03:16:59.330Z,3.1
2018-12-01T03:19:58.906Z,3.1
2018-12-01T03:22:58.978Z,3.1
2018-12-01T03:25:58.914Z,3
2018-12-01T03:28:59.221Z,2.9
2018-12-01T03:31:59.426Z,2.9
2018-12-01T03:34:59.100Z,2.8
2018-12-01T03:37:58.884Z,3
2018-12-01T03:40:59.109Z,3
2018-12-01T03:43:58.927Z,3
2018-12-01T03:46:59.079Z,2.9
2018-12-01T03:49:59.121Z,3
2018-12-01T03:52:58.927Z,2.9
2018-12-01T03:55:58.949Z,2.9
2018-12-01T03:58:59.090Z,3
2018-12-01T04:01:59.485Z,2.9
2018-12-01T04:04:58.915Z,2.9
2018-12-01T04:07:59.045Z,2.8
2018-12-01T04:10:59.257Z,2.7
2018-12-01T04:13:59.181Z,2.8
2018-12-01T04:16:59.498Z,2.8
2018-12-01T04:19:58.908Z,2.8
2018-12-01T04:22:58.948Z,2.8
2018-12-01T04:25:59.139Z,2.8
2018-12-01T04:28:59.094Z,2.7
2018-12-01T04:31:59.060Z,2.8
2018-12-01T04:34:59.013Z,2.7
2018-12-01T04:37:59.326Z,2.7
2018-12-01T04:40:58.825Z,2.7
2018-12-01T04:43:59.016Z,2.7
2018-12-01T04:46:59.974Z,2.7
2018-12-01T04:49:58.939Z,2.7
2018-12-01T04:52:58.977Z,2.6
2018-12-01T04:55:59.097Z,2.7
2018-12-01T04:58:59.199Z,2.6
2018-12-01T05:01:59.064Z,2.6
2018-12-01T05:04:59.070Z,2.5
2018-12-01T05:07:58.980Z,2.4
2018-12-01T05:10:58.911Z,2.4
2018-12-01T05:13:58.972Z,2.5
2018-12-01T05:16:58.936Z,2.4
2018-12-01T05:19:59.125Z,2.4
2018-12-01T05:22:59.048Z,2.5
2018-12-01T05:25:58.794Z,2.4
2018-12-01T05:28:58.985Z,2.4
2018-12-01T05:31:59.108Z,2.5
2018-12-01T05:34:58.858Z,2.5
2018-12-01T05:37:59.083Z,2.5
2018-12-01T05:40:59.299Z,2.5
2018-12-01T05:43:59.061Z,2.5
2018-12-01T05:46:59.059Z,2.6
2018-12-01T05:49:58.990Z,2.5
2018-12-01T05:53:00.334Z,2.4
2018-12-01T05:55:59.041Z,2.4
2018-12-01T05:58:58.975Z,2.4
2018-12-01T06:01:58.925Z,2.4
2018-12-01T06:04:58.858Z,2.3
2018-12-01T06:07:58.954Z,2.3
2018-12-01T06:10:59.528Z,2.3
2018-12-01T06:13:58.900Z,2.3
2018-12-01T06:16:59.290Z,2.3
2018-12-01T06:19:58.814Z,2.4
2018-12-01T06:22:59.157Z,2.3
2018-12-01T06:25:59.079Z,2.3
2018-12-01T06:28:59.574Z,2.4
2018-12-01T06:31:59.113Z,2.3
2018-12-01T06:34:59.020Z,2.3
2018-12-01T06:37:58.946Z,2.3
2018-12-01T06:40:59.211Z,2.3
2018-12-01T06:43:58.977Z,2.3
2018-12-01T06:46:58.790Z,2.2
2018-12-01T06:49:58.997Z,2.4
2018-12-01T06:52:59.839Z,2.3
2018-12-01T06:55:58.785Z,2.3
2018-12-01T06:58:58.894Z,2.3
2018-12-01T07:01:58.906Z,2.3
2018-12-01T07:04:59.939Z,2.2
2018-12-01T07:07:59.198Z,2.2
2018-12-01T07:10:59.043Z,2.3
2018-12-01T07:13:58.885Z,2.3
2018-12-01T07:16:59.072Z,2.2
2018-12-01T07:19:59.203Z,2.2
2018-12-01T07:22:59.249Z,2.2
2018-12-01T07:25:58.874Z,2.3
2018-12-01T07:28:59.059Z,2.2
2018-12-01T07:31:59.127Z,2.3
2018-12-01T07:34:58.857Z,2.2
2018-12-01T07:37:58.950Z,2.2
2018-12-01T07:40:58.823Z,2.1
2018-12-01T07:43:58.942Z,2.2
2018-12-01T07:46:59.058Z,2.1
2018-12-01T07:49:59.231Z,2.1
2018-12-01T07:52:58.842Z,2.3
2018-12-01T07:55:58.976Z,2.2
2018-12-01T07:58:59.232Z,2.2
2018-12-01T08:01:59.292Z,2.1
2018-12-01T08:04:59.301Z,2.1
2018-12-01T08:07:59.121Z,2.2
2018-12-01T08:10:58.873Z,2.1
2018-12-01T08:13:58.963Z,2.1
2018-12-01T08:16:59.186Z,2.2
2018-12-01T08:19:58.922Z,2.1
2018-12-01T08:22:58.962Z,2.1
2018-12-01T08:25:58.728Z,2.1
2018-12-01T08:28:58.825Z,2.1
2018-12-01T08:31:58.935Z,2
2018-12-01T08:34:58.957Z,2.1
2018-12-01T08:37:59.042Z,2.1
2018-12-01T08:40:59.489Z,2.1
2018-12-01T08:43:58.873Z,2.1
2018-12-01T08:46:58.937Z,2.1
2018-12-01T08:49:59.044Z,2.1
2018-12-01T08:52:59.055Z,2.1
2018-12-01T08:55:58.909Z,2
2018-12-01T08:58:59.048Z,2
2018-12-01T09:01:59.401Z,2
2018-12-01T09:04:58.808Z,2.3
2018-12-01T09:07:58.933Z,2.1
2018-12-01T09:10:59.120Z,2.5
2018-12-01T09:13:58.823Z,3.1
2018-12-01T09:16:58.909Z,3.5
2018-12-01T09:19:59.293Z,3.2
2018-12-01T09:22:59.035Z,3.3
2018-12-01T09:25:58.782Z,3.5
2018-12-01T09:28:59.071Z,3.5
2018-12-01T09:31:58.849Z,3.6
2018-12-01T09:34:59.177Z,3.4
2018-12-01T09:37:59.016Z,3.1
2018-12-01T09:40:58.648Z,2.6
2018-12-01T09:43:58.789Z,2.4
2018-12-01T09:46:59.182Z,2.1
2018-12-01T09:49:58.907Z,2.2
2018-12-01T09:52:58.805Z,2.5
2018-12-01T09:55:59.417Z,3.1
2018-12-01T09:58:58.905Z,3.2
2018-12-01T10:01:58.867Z,3.3
2018-12-01T10:04:58.897Z,2.5
2018-12-01T10:07:59.024Z,2.3
2018-12-01T10:10:58.791Z,2.3
2018-12-01T10:13:58.813Z,2.4
2018-12-01T10:16:59.819Z,2.2
2018-12-01T10:19:58.921Z,2.8
2018-12-01T10:22:59.113Z,2.8
2018-12-01T10:26:00.411Z,2.8
2018-12-01T10:28:59.793Z,2.6
2018-12-01T10:31:58.848Z,2.3
2018-12-01T10:34:58.877Z,2.8
2018-12-01T10:37:58.907Z,2.4
2018-12-01T10:40:58.863Z,2.3
2018-12-01T10:43:58.908Z,2.1
2018-12-01T10:46:58.849Z,2.3
2018-12-01T10:49:58.679Z,2.1
2018-12-01T10:52:58.900Z,2
2018-12-01T10:55:58.879Z,2.1
2018-12-01T10:58:59.214Z,2.5
2018-12-01T11:01:58.691Z,2.4
2018-12-01T11:04:58.939Z,2.7
2018-12-01T11:07:59.196Z,4.6
2018-12-01T11:10:58.871Z,4
2018-12-01T11:13:59.031Z,4
2018-12-01T11:16:59.104Z,6.4
2018-12-01T11:19:58.609Z,6.6
2018-12-01T11:22:59.588Z,5.2
2018-12-01T11:25:58.896Z,4.8
2018-12-01T11:28:59.247Z,4.7
2018-12-01T11:31:59.017Z,5.6
2018-12-01T11:34:59.067Z,4.6
2018-12-01T11:37:58.824Z,5
2018-12-01T11:40:58.783Z,3.8
2018-12-01T11:43:58.906Z,4.8
2018-12-01T11:46:58.784Z,6.6
2018-12-01T11:49:58.674Z,5.3
2018-12-01T11:52:58.726Z,4.9
2018-12-01T11:55:58.889Z,4.4
2018-12-01T11:58:58.641Z,3.8
2018-12-01T12:02:01.015Z,4.5
2018-12-01T12:04:58.750Z,3.5
2018-12-01T12:07:59.006Z,3.2
2018-12-01T12:10:58.780Z,2.9
2018-12-01T12:13:59.136Z,3.2
2018-12-01T12:16:58.707Z,3.6
2018-12-01T12:19:59.528Z,5
2018-12-01T12:22:59.144Z,4
2018-12-01T12:25:58.722Z,3.1
2018-12-01T12:28:58.966Z,2.8
2018-12-01T12:31:58.932Z,2.4
2018-12-01T12:34:58.847Z,3.4
2018-12-01T12:37:58.797Z,2.9
2018-12-01T12:40:59.027Z,2.7
2018-12-01T12:43:59.052Z,2.4
2018-12-01T12:46:58.917Z,3.7
2018-12-01T12:49:59.091Z,3.9
2018-12-01T12:52:58.977Z,4.3
2018-12-01T12:55:59.349Z,4.3
2018-12-01T12:58:59.067Z,3.9
2018-12-01T13:01:59.026Z,4.4
2018-12-01T13:04:58.808Z,6.7
2018-12-01T13:07:58.908Z,7.5
2018-12-01T13:10:58.986Z,5.9
2018-12-01T13:13:58.893Z,5
2018-12-01T13:16:58.798Z,4.7
2018-12-01T13:19:58.884Z,5.2
2018-12-01T13:22:58.781Z,6.1
2018-12-01T13:25:58.782Z,5.8
2018-12-01T13:28:58.836Z,4.5
2018-12-01T13:31:58.752Z,4.3
2018-12-01T13:34:59.503Z,3.7
2018-12-01T13:37:59.047Z,3.5
2018-12-01T13:40:58.817Z,4.2
2018-12-01T13:43:58.853Z,6.2
2018-12-01T13:46:58.826Z,5.5
2018-12-01T13:49:58.886Z,4.6
2018-12-01T13:52:58.598Z,4.2
2018-12-01T13:55:59.612Z,3.7
2018-12-01T13:58:59.102Z,3.3
2018-12-01T14:01:59.583Z,2.8
2018-12-01T14:04:58.793Z,3
2018-12-01T14:07:59.244Z,2.6
2018-12-01T14:10:59.257Z,2.8
2018-12-01T14:13:58.753Z,3.1
2018-12-01T14:16:58.772Z,3.1
2018-12-01T14:19:58.612Z,2.6
2018-12-01T14:22:58.777Z,2.5
2018-12-01T14:25:58.950Z,2.5
2018-12-01T14:28:58.683Z,2.6
2018-12-01T14:31:58.844Z,2.8
2018-12-01T14:34:59.703Z,3.5
2018-12-01T14:37:58.869Z,2.7
2018-12-01T14:40:58.848Z,2.5
2018-12-01T14:43:58.847Z,2.7
2018-12-01T14:46:58.850Z,2.5
2018-12-01T14:49:58.858Z,2.5
2018-12-01T14:52:58.725Z,2.5
2018-12-01T14:55:58.829Z,2.8
2018-12-01T14:58:58.669Z,2.9
2018-12-01T15:01:58.762Z,2.8
2018-12-01T15:04:58.791Z,2.4
2018-12-01T15:07:58.853Z,2.9
2018-12-01T15:10:59.092Z,2.5
2018-12-01T15:13:59.222Z,2.4
2018-12-01T15:16:58.973Z,2.3
2018-12-01T15:19:58.947Z,2.2
2018-12-01T15:22:58.881Z,2.1
2018-12-01T15:25:58.590Z,2.2
2018-12-01T15:28:58.914Z,2.3
2018-12-01T15:31:58.843Z,2.4
2018-12-01T15:34:58.677Z,2.3
2018-12-01T15:37:58.965Z,2
2018-12-01T15:40:58.716Z,2.3
2018-12-01T15:43:58.639Z,2.2
2018-12-01T15:46:58.713Z,2
2018-12-01T15:49:58.928Z,2
2018-12-01T15:52:58.833Z,1.9
2018-12-01T15:55:58.764Z,1.9
2018-12-01T15:58:59.038Z,1.8
2018-12-01T16:01:58.971Z,1.9
2018-12-01T16:04:58.473Z,1.8
2018-12-01T16:07:58.596Z,1.8
2018-12-01T16:10:58.800Z,1.9
2018-12-01T16:13:58.912Z,1.9
2018-12-01T16:16:58.750Z,1.8
2018-12-01T16:19:58.802Z,2
2018-12-01T16:22:58.799Z,2.2
2018-12-01T16:25:58.804Z,2
2018-12-01T16:28:58.903Z,2
2018-12-01T16:31:58.817Z,2.2
2018-12-01T16:34:58.643Z,2
2018-12-01T16:37:58.974Z,1.9
2018-12-01T16:40:58.873Z,1.9
2018-12-01T16:43:58.549Z,2
2018-12-01T16:46:58.538Z,2.2
2018-12-01T16:49:58.851Z,2.1
2018-12-01T16:52:58.771Z,2
2018-12-01T16:55:58.636Z,2.1
2018-12-01T16:58:58.846Z,6.3
2018-12-01T17:01:58.673Z,5.1
2018-12-01T17:04:58.534Z,6
2018-12-01T17:07:59.050Z,4.7
2018-12-01T17:10:58.672Z,4
2018-12-01T17:13:58.774Z,5.2
2018-12-01T17:16:58.992Z,5.5
2018-12-01T17:19:58.989Z,6.6
2018-12-01T17:22:59.108Z,5.2
2018-12-01T17:25:58.963Z,6.2
2018-12-01T17:28:58.496Z,5.4
2018-12-01T17:31:58.578Z,5.1
2018-12-01T17:34:58.981Z,4.5
2018-12-01T17:37:59.025Z,4.4
2018-12-01T17:40:59.047Z,3.9
2018-12-01T17:43:58.701Z,4.7
2018-12-01T17:46:58.742Z,4
2018-12-01T17:49:58.588Z,4.3
2018-12-01T17:58:38.550Z,4.5
2018-12-01T18:01:38.989Z,4
2018-12-01T18:18:42.047Z,4.2
2018-12-01T18:21:42.122Z,3.7
2018-12-01T18:24:42.336Z,3.5
2018-12-01T18:27:42.110Z,2.9
2018-12-01T18:30:42.007Z,3.6
2018-12-01T18:33:42.655Z,4.2
2018-12-01T18:36:42.065Z,4
2018-12-01T18:39:42.137Z,3.6
2018-12-01T18:42:42.296Z,3.2
2018-12-01T18:45:42.339Z,3.4
2018-12-01T18:48:43.199Z,3
2018-12-01T18:51:42.167Z,2.9
2018-12-01T18:54:42.273Z,3.1
2018-12-01T18:57:42.196Z,2.9
2018-12-01T19:00:42.237Z,3.1
2018-12-01T19:03:42.188Z,2.8
2018-12-01T19:06:42.507Z,2.6
2018-12-01T19:09:42.358Z,2.8
2018-12-01T19:12:42.229Z,2.7
2018-12-01T19:15:42.120Z,2.4
2018-12-01T19:18:42.391Z,3
2018-12-01T19:21:42.129Z,2.9
2018-12-01T19:24:42.433Z,2.7
2018-12-01T19:27:42.297Z,2.4
2018-12-01T19:30:42.132Z,2.4
2018-12-01T19:33:42.320Z,2.4
2018-12-01T19:36:42.424Z,2.6
2018-12-01T19:39:42.166Z,2.8
2018-12-01T19:42:42.497Z,2.5
2018-12-01T19:45:42.199Z,2.4
2018-12-01T19:48:42.095Z,2.4
2018-12-01T19:51:42.156Z,2.3
2018-12-01T19:54:42.138Z,2.2
2018-12-01T19:57:42.486Z,2.2
2018-12-01T20:00:42.163Z,2.4
2018-12-01T20:03:42.330Z,2.3
2018-12-01T20:06:42.277Z,2.3
2018-12-01T20:09:42.278Z,4.5
2018-12-01T20:12:42.341Z,3.6
2018-12-01T20:15:42.149Z,3.4
2018-12-01T20:18:42.359Z,4
2018-12-01T20:21:44.037Z,4.1
2018-12-01T20:24:42.316Z,4
2018-12-01T20:27:42.187Z,4.7
2018-12-01T20:30:42.267Z,5.5
2018-12-01T20:33:42.535Z,4.9
2018-12-01T20:36:42.110Z,4.4
2018-12-01T20:39:42.047Z,4.3
2018-12-01T20:42:42.146Z,4.3
2018-12-01T20:45:42.176Z,4.4
2018-12-01T20:48:42.369Z,4.7
2018-12-01T20:51:42.396Z,4.4
2018-12-01T20:54:41.973Z,5.1
2018-12-01T20:57:42.041Z,4.6
2018-12-01T21:00:42.208Z,4.1
2018-12-01T21:03:42.466Z,4.4
2018-12-01T21:06:42.199Z,4.3
2018-12-01T21:09:42.157Z,5.1
2018-12-01T21:12:42.114Z,4.7
2018-12-01T21:15:42.145Z,4.9
2018-12-01T21:18:42.351Z,4.7
2018-12-01T21:21:42.219Z,4.4
2018-12-01T21:24:42.150Z,5.1
2018-12-01T21:27:42.423Z,5.1
2018-12-01T21:30:42.257Z,5
2018-12-01T21:33:41.978Z,4.9
2018-12-01T21:36:42.500Z,4.9
2018-12-01T21:39:42.383Z,4.4
2018-12-01T21:42:42.040Z,4.2
2018-12-01T21:45:42.140Z,3.9
2018-12-01T21:48:42.174Z,3.7
2018-12-01T21:51:42.216Z,4.5
2018-12-01T21:54:42.199Z,4.8
2018-12-01T21:57:42.123Z,5
2018-12-01T22:00:42.216Z,4.4
2018-12-01T22:03:42.434Z,4.2
2018-12-01T22:06:42.265Z,3.8
2018-12-01T22:09:42.016Z,4.1
2018-12-01T22:12:42.084Z,4.1
2018-12-01T22:15:42.639Z,3.7
2018-12-01T22:18:42.183Z,3.6
2018-12-01T22:21:42.155Z,3.5
2018-12-01T22:24:42.224Z,3.6
2018-12-01T22:27:42.554Z,3.5
2018-12-01T22:30:42.266Z,3.3
2018-12-01T22:33:42.244Z,3.5
2018-12-01T22:36:42.141Z,3.5
2018-12-01T22:39:42.282Z,3.5
2018-12-01T22:42:42.257Z,3.6
2018-12-01T22:45:42.205Z,3.4
2018-12-01T22:48:42.311Z,3.4
2018-12-01T22:51:42.006Z,3.3
2018-12-01T22:54:42.121Z,3.2
2018-12-01T22:57:42.243Z,3.1
2018-12-01T23:00:42.284Z,3.2
2018-12-01T23:03:42.061Z,3.2
2018-12-01T23:06:42.113Z,3.1
2018-12-01T23:09:42.054Z,3.4
2018-12-01T23:12:42.170Z,3.3
2018-12-01T23:15:42.098Z,3.4
2018-12-01T23:18:42.422Z,3.3
2018-12-01T23:21:42.077Z,3.4
2018-12-01T23:24:42.115Z,3.2
2018-12-01T23:27:42.011Z,3.2
2018-12-01T23:30:42.065Z,3.5
2018-12-01T23:33:42.093Z,3.4
2018-12-01T23:36:41.956Z,3.7
2018-12-01T23:39:42.047Z,3.3
2018-12-01T23:42:42.131Z,3.1
2018-12-01T23:45:42.196Z,3.1
2018-12-01T23:48:42.146Z,3.2
2018-12-01T23:51:42.476Z,3.1
2018-12-01T23:54:42.001Z,3
2018-12-01T23:57:42.402Z,2.9
